Lillooet, Canada
Current Conditions -  °F | °C
As of 2:00 AM on Wednesday 22 Oct 2014 (Local Time) from CWLY Reporting Station
Light Rain Light Rain  
Wind Chill: 52°   Ceiling: 7000
Heat Index: 52°   Visibility: 9mi
Dew Point: 48°   Wind: 13mph
Humidity: 88%   Direction: 190°S
Pressure: 29.59"   Gusts: 21mph
Location:  50.68°N, 121.93°W
Report Text: CWLY 220900Z AUTO 19011G18KT 9SM -RA OVC070 11/09 A2959 RMK SLP021
Loading
Personal Weather Stations






























Interactive Weather Map
Tropical Storm Tracking
New forecast layout! Learn more

10-Day Weather Forecast

Advertisements
Track Severe Weather on mobile